»·PEaware :: N665CS KSFO-KLAS

N665CS :: KSFO-KLAS

FLIGHT INFORMATION

Flight Status: Arrived
Operator: Privately registered:
United States
More flights under this callsign
Pilot: Jiekun W. (33071)
Aircraft: SOCATA TBM-900
(TBM9)
More flights by this aircraft type
Origin: KSFO San Francisco Intl
United States
Destination: KLAS McCarran Intl
United States
More flights between these airports :: More routes between these airports
Route: SFO4 OAK OAL J92 BTY SUNST4
File this flight plan on PilotEdge
Remarks: RMK / SIMBRIEF
Altitude:
(Current/Filed)
29,000ft
Speed:
(Current/Filed)
313kts
Departed: 05-Jan-21 02:11 PM
Arrived: 05-Jan-21 03:41 PM
Distance/Time
Traveled:
358nm/1:30
Distance/Time
To Go:
Arrived

Flight Plot

Page will automatically refresh every two minutes.

Flight plan parsing failed; only flown route is shown


Map Options




Map Legend


Flown Route
Filed Route
Departure Airport
Arrival Airport
Navaid (VOR, NDB)
Fix

Horizontal Profiles

Position Reports

Time Latitude Longitude Heading Altitude Ground
Speed
05-Jan-21 13:44 37.627705 -122.384293 298 11ft 0kts
05-Jan-21 13:45 37.627705 -122.384293 298 11ft 0kts
05-Jan-21 13:46 37.627705 -122.384293 298 11ft 0kts
05-Jan-21 13:47 37.627705 -122.384293 298 11ft 0kts
05-Jan-21 13:48 37.627705 -122.384293 298 11ft 0kts
05-Jan-21 13:49 37.627705 -122.384293 298 11ft 0kts
05-Jan-21 13:50 37.627705 -122.384293 298 11ft 0kts
05-Jan-21 13:51 37.627705 -122.384293 298 11ft 0kts
05-Jan-21 13:52 37.627705 -122.384293 298 11ft 0kts
05-Jan-21 13:53 37.627705 -122.384293 298 11ft 0kts
05-Jan-21 13:54 37.627705 -122.384293 298 11ft 0kts
05-Jan-21 13:55 37.627705 -122.384293 298 11ft 0kts
05-Jan-21 13:56 37.627705 -122.384293 298 11ft 0kts
05-Jan-21 13:57 37.627705 -122.384293 298 11ft 0kts
05-Jan-21 13:58 37.627733 -122.384678 229 11ft 4kts
05-Jan-21 13:59 37.626448 -122.384226 119 14ft 6kts
05-Jan-21 14:00 37.625626 -122.382261 119 17ft 6kts
05-Jan-21 14:01 37.624837 -122.380380 118 20ft 6kts
05-Jan-21 14:02 37.623690 -122.377610 117 18ft 10kts
05-Jan-21 14:03 37.622192 -122.374103 117 12ft 13kts
05-Jan-21 14:04 37.620445 -122.369913 117 6ft 13kts
05-Jan-21 14:05 37.618808 -122.366019 118 6ft 11kts
05-Jan-21 14:06 37.617294 -122.362392 118 4ft 12kts
05-Jan-21 14:07 37.615718 -122.358633 118 3ft 11kts
05-Jan-21 14:08 37.614483 -122.356750 197 3ft 0kts
05-Jan-21 14:09 37.614388 -122.356791 201 3ft 2kts
05-Jan-21 14:10 37.617278 -122.366265 297 58ft 108kts
05-Jan-21 14:11 37.632197 -122.404309 299 1965ft 133kts
05-Jan-21 14:12 37.651733 -122.450634 300 3023ft 181kts
05-Jan-21 14:13 37.638124 -122.497724 203 4597ft 154kts
05-Jan-21 14:14 37.601216 -122.515215 203 7059ft 144kts
05-Jan-21 14:16 37.562081 -122.519353 173 9418ft 148kts
05-Jan-21 14:17 37.520517 -122.509659 173 11561ft 155kts
05-Jan-21 14:18 37.485610 -122.484991 89 13768ft 169kts
05-Jan-21 14:19 37.491983 -122.425152 79 16040ft 175kts
05-Jan-21 14:20 37.499988 -122.363335 78 18092ft 184kts
05-Jan-21 14:21 37.508433 -122.298071 78 20367ft 192kts
05-Jan-21 14:22 37.517169 -122.230327 79 22598ft 200kts
05-Jan-21 14:23 37.526261 -122.159461 79 24744ft 209kts
05-Jan-21 14:24 37.535738 -122.085266 79 26955ft 219kts
05-Jan-21 14:25 37.545595 -122.007613 79 29082ft 228kts
05-Jan-21 14:26 37.557328 -121.914812 79 29301ft 300kts
05-Jan-21 14:27 37.571247 -121.803877 79 29273ft 330kts
05-Jan-21 14:28 37.585826 -121.686617 79 29267ft 339kts
05-Jan-21 14:29 37.600446 -121.567969 79 29277ft 342kts
05-Jan-21 14:29 37.612650 -121.468221 79 29288ft 343kts
05-Jan-21 14:31 37.629592 -121.328527 80 29289ft 344kts
05-Jan-21 14:32 37.644005 -121.208484 80 29288ft 343kts
05-Jan-21 14:33 37.658191 -121.089026 79 29290ft 342kts
05-Jan-21 14:33 37.669969 -120.989316 78 29290ft 340kts
05-Jan-21 14:34 37.683838 -120.871104 78 29289ft 337kts
05-Jan-21 14:36 37.699766 -120.733813 78 29290ft 336kts
05-Jan-21 14:36 37.711021 -120.635933 78 29285ft 336kts
05-Jan-21 14:37 37.724394 -120.518590 78 29275ft 336kts
05-Jan-21 14:38 37.737697 -120.400867 78 29269ft 336kts
05-Jan-21 14:39 37.750823 -120.283655 79 29262ft 336kts
05-Jan-21 14:40 37.763846 -120.166204 78 29261ft 335kts
05-Jan-21 14:41 37.776748 -120.048829 78 29262ft 335kts
05-Jan-21 14:42 37.789542 -119.931255 78 29256ft 336kts
05-Jan-21 14:43 37.802192 -119.813999 79 29244ft 336kts
05-Jan-21 14:44 37.814771 -119.696190 78 29236ft 336kts
05-Jan-21 14:45 37.827243 -119.578284 78 29237ft 335kts
05-Jan-21 14:46 37.839570 -119.460603 79 29242ft 335kts
05-Jan-21 14:47 37.851784 -119.342830 79 29252ft 335kts
05-Jan-21 14:48 37.863844 -119.225383 79 29259ft 335kts
05-Jan-21 14:49 37.875814 -119.107607 79 29275ft 335kts
05-Jan-21 14:50 37.887656 -118.989803 79 29289ft 335kts
05-Jan-21 14:51 37.899386 -118.871975 78 29289ft 334kts
05-Jan-21 14:52 37.910927 -118.755032 78 29289ft 332kts
05-Jan-21 14:53 37.922281 -118.638710 78 29289ft 331kts
05-Jan-21 14:54 37.933528 -118.522218 78 29279ft 331kts
05-Jan-21 14:55 37.944697 -118.405262 78 29242ft 332kts
05-Jan-21 14:56 37.955748 -118.288363 78 29211ft 331kts
05-Jan-21 14:57 37.966608 -118.172192 78 29213ft 331kts
05-Jan-21 14:58 37.977413 -118.055344 78 29216ft 330kts
05-Jan-21 14:59 37.988068 -117.938839 78 29229ft 330kts
05-Jan-21 15:00 37.995448 -117.821775 94 29232ft 336kts
05-Jan-21 15:01 37.948612 -117.719379 142 29246ft 343kts
05-Jan-21 15:02 37.867854 -117.653187 145 29268ft 343kts
05-Jan-21 15:03 37.788441 -117.584771 145 29290ft 344kts
05-Jan-21 15:04 37.708951 -117.516401 145 29291ft 344kts
05-Jan-21 15:05 37.629132 -117.447931 145 29291ft 345kts
05-Jan-21 15:06 37.549327 -117.379653 145 29290ft 345kts
05-Jan-21 15:07 37.469560 -117.311589 146 29289ft 345kts
05-Jan-21 15:08 37.389534 -117.243478 146 29277ft 345kts
05-Jan-21 15:09 37.309449 -117.175496 146 29250ft 345kts
05-Jan-21 15:10 37.229256 -117.107602 146 29236ft 345kts
05-Jan-21 15:11 37.148813 -117.039684 145 29238ft 347kts
05-Jan-21 15:12 37.067958 -116.971567 145 29240ft 349kts
05-Jan-21 15:13 36.986728 -116.903320 146 29240ft 350kts
05-Jan-21 15:14 36.905193 -116.835013 146 29240ft 349kts
05-Jan-21 15:15 36.824176 -116.767315 146 29234ft 348kts
05-Jan-21 15:16 36.755024 -116.682545 129 29236ft 347kts
05-Jan-21 15:17 36.690951 -116.591169 129 29236ft 347kts
05-Jan-21 15:18 36.626744 -116.499870 129 28326ft 353kts
05-Jan-21 15:19 36.561647 -116.407562 129 26453ft 352kts
05-Jan-21 15:20 36.496671 -116.315696 130 24563ft 348kts
05-Jan-21 15:21 36.432832 -116.225695 130 22807ft 341kts
05-Jan-21 15:22 36.369698 -116.136914 131 20964ft 343kts
05-Jan-21 15:23 36.306203 -116.047870 131 19054ft 340kts
05-Jan-21 15:24 36.243435 -115.960077 131 17160ft 335kts
05-Jan-21 15:25 36.190670 -115.870054 110 16021ft 304kts
05-Jan-21 15:26 36.160551 -115.775547 110 16015ft 284kts
05-Jan-21 15:27 36.131308 -115.684687 110 16013ft 281kts
05-Jan-21 15:28 36.100968 -115.590698 110 14536ft 299kts
05-Jan-21 15:29 36.070143 -115.495532 111 12924ft 293kts
05-Jan-21 15:30 36.039911 -115.402507 111 11368ft 286kts
05-Jan-21 15:31 36.026319 -115.309598 94 10670ft 275kts
05-Jan-21 15:32 36.019468 -115.215111 94 9199ft 272kts
05-Jan-21 15:33 36.023853 -115.128596 42 8698ft 248kts
05-Jan-21 15:34 36.077115 -115.084372 31 7191ft 217kts
05-Jan-21 15:35 36.125687 -115.045469 31 6034ft 184kts
05-Jan-21 15:36 36.163180 -115.048460 301 5980ft 161kts
05-Jan-21 15:37 36.168610 -115.097187 219 5132ft 163kts
05-Jan-21 15:38 36.134696 -115.127618 221 3559ft 123kts
05-Jan-21 15:39 36.111284 -115.148977 218 2615ft 95kts
05-Jan-21 15:40 36.090324 -115.161826 204 2119ft 40kts
05-Jan-21 15:41 36.089541 -115.163585 357 2128ft 0kts
05-Jan-21 15:42 36.089648 -115.164060 264 2129ft 10kts
05-Jan-21 15:43 36.094535 -115.161773 24 2107ft 21kts
05-Jan-21 15:44 36.098571 -115.160675 355 2098ft 11kts
05-Jan-21 15:45 36.099464 -115.160715 54 2097ft 0kts

Navigation Log

Ident Type
Flight plan parsing failed, navigation log unavailable